sensor_id;sensor_type;location;lat;lon;timestamp;temperature;humidity
72952;HTU21D;61102;51.956;5.878;2023-04-25T00:01:18;10.95;60.74
72952;HTU21D;61102;51.956;5.878;2023-04-25T00:03:44;10.89;60.88
72952;HTU21D;61102;51.956;5.878;2023-04-25T00:06:12;10.84;60.86
72952;HTU21D;61102;51.956;5.878;2023-04-25T00:08:38;10.81;60.84
72952;HTU21D;61102;51.956;5.878;2023-04-25T00:11:04;10.77;60.85
72952;HTU21D;61102;51.956;5.878;2023-04-25T00:13:31;10.70;60.88
72952;HTU21D;61102;51.956;5.878;2023-04-25T00:15:57;10.69;60.86
72952;HTU21D;61102;51.956;5.878;2023-04-25T00:18:24;10.65;60.81
72952;HTU21D;61102;51.956;5.878;2023-04-25T00:20:50;10.63;60.75
72952;HTU21D;61102;51.956;5.878;2023-04-25T00:23:17;10.59;60.74
72952;HTU21D;61102;51.956;5.878;2023-04-25T00:25:47;10.56;60.84
72952;HTU21D;61102;51.956;5.878;2023-04-25T00:28:14;10.54;60.80
72952;HTU21D;61102;51.956;5.878;2023-04-25T00:30:40;10.51;60.79
72952;HTU21D;61102;51.956;5.878;2023-04-25T00:33:07;10.48;60.92
72952;HTU21D;61102;51.956;5.878;2023-04-25T00:35:34;10.46;60.86
72952;HTU21D;61102;51.956;5.878;2023-04-25T00:38:01;10.46;60.94
72952;HTU21D;61102;51.956;5.878;2023-04-25T00:40:27;10.49;60.97
72952;HTU21D;61102;51.956;5.878;2023-04-25T00:42:53;10.54;60.92
72952;HTU21D;61102;51.956;5.878;2023-04-25T00:45:20;10.59;60.91
72952;HTU21D;61102;51.956;5.878;2023-04-25T00:47:46;10.65;60.85
72952;HTU21D;61102;51.956;5.878;2023-04-25T00:50:13;10.70;60.83
72952;HTU21D;61102;51.956;5.878;2023-04-25T00:52:43;10.73;60.83
72952;HTU21D;61102;51.956;5.878;2023-04-25T00:55:11;10.77;60.67
72952;HTU21D;61102;51.956;5.878;2023-04-25T00:57:38;10.75;60.55
72952;HTU21D;61102;51.956;5.878;2023-04-25T01:00:06;10.71;60.65
72952;HTU21D;61102;51.956;5.878;2023-04-25T01:02:32;11.05;59.46
72952;HTU21D;61102;51.956;5.878;2023-04-25T01:04:58;10.75;59.97
72952;HTU21D;61102;51.956;5.878;2023-04-25T01:07:25;10.57;60.35
72952;HTU21D;61102;51.956;5.878;2023-04-25T01:09:52;10.46;60.57
72952;HTU21D;61102;51.956;5.878;2023-04-25T01:12:18;10.42;60.62
72952;HTU21D;61102;51.956;5.878;2023-04-25T01:14:46;10.38;60.70
72952;HTU21D;61102;51.956;5.878;2023-04-25T01:17:12;10.37;60.80
72952;HTU21D;61102;51.956;5.878;2023-04-25T01:19:38;10.40;60.79
72952;HTU21D;61102;51.956;5.878;2023-04-25T01:22:04;10.42;60.80
72952;HTU21D;61102;51.956;5.878;2023-04-25T01:24:32;10.40;60.92
72952;HTU21D;61102;51.956;5.878;2023-04-25T01:27:00;10.42;60.87
72952;HTU21D;61102;51.956;5.878;2023-04-25T01:29:28;10.45;60.81
72952;HTU21D;61102;51.956;5.878;2023-04-25T01:31:54;10.88;59.67
72952;HTU21D;61102;51.956;5.878;2023-04-25T01:34:21;10.66;60.15
72952;HTU21D;61102;51.956;5.878;2023-04-25T01:36:49;10.59;60.61
72952;HTU21D;61102;51.956;5.878;2023-04-25T01:39:17;10.62;60.57
72952;HTU21D;61102;51.956;5.878;2023-04-25T01:41:46;10.64;60.61
72952;HTU21D;61102;51.956;5.878;2023-04-25T01:44:13;10.68;60.48
72952;HTU21D;61102;51.956;5.878;2023-04-25T01:46:39;10.70;60.46
72952;HTU21D;61102;51.956;5.878;2023-04-25T01:49:08;10.72;60.45
72952;HTU21D;61102;51.956;5.878;2023-04-25T01:51:35;10.75;60.44
72952;HTU21D;61102;51.956;5.878;2023-04-25T01:54:01;10.78;60.40
72952;HTU21D;61102;51.956;5.878;2023-04-25T01:56:32;10.81;60.57
72952;HTU21D;61102;51.956;5.878;2023-04-25T01:59:00;10.82;60.33
72952;HTU21D;61102;51.956;5.878;2023-04-25T02:01:50;10.84;60.21
72952;HTU21D;61102;51.956;5.878;2023-04-25T02:04:24;10.85;60.23
72952;HTU21D;61102;51.956;5.878;2023-04-25T02:06:50;10.83;60.25
72952;HTU21D;61102;51.956;5.878;2023-04-25T02:09:16;10.82;60.27
72952;HTU21D;61102;51.956;5.878;2023-04-25T02:11:50;10.83;60.24
72952;HTU21D;61102;51.956;5.878;2023-04-25T02:14:35;10.81;60.24
72952;HTU21D;61102;51.956;5.878;2023-04-25T02:17:11;10.79;60.26
72952;HTU21D;61102;51.956;5.878;2023-04-25T02:19:38;10.78;60.25
72952;HTU21D;61102;51.956;5.878;2023-04-25T02:22:04;10.74;60.34
72952;HTU21D;61102;51.956;5.878;2023-04-25T02:24:30;10.71;60.38
72952;HTU21D;61102;51.956;5.878;2023-04-25T02:26:57;10.71;60.35
72952;HTU21D;61102;51.956;5.878;2023-04-25T02:29:23;10.69;60.37
72952;HTU21D;61102;51.956;5.878;2023-04-25T02:31:50;10.67;60.32
72952;HTU21D;61102;51.956;5.878;2023-04-25T02:34:17;10.65;60.31
72952;HTU21D;61102;51.956;5.878;2023-04-25T02:36:43;10.62;60.34
72952;HTU21D;61102;51.956;5.878;2023-04-25T02:39:09;10.57;60.27
72952;HTU21D;61102;51.956;5.878;2023-04-25T02:41:35;10.51;60.25
72952;HTU21D;61102;51.956;5.878;2023-04-25T02:44:02;10.42;60.24
72952;HTU21D;61102;51.956;5.878;2023-04-25T02:46:28;10.35;60.27
72952;HTU21D;61102;51.956;5.878;2023-04-25T02:48:54;10.28;60.21
72952;HTU21D;61102;51.956;5.878;2023-04-25T02:51:20;10.21;60.25
72952;HTU21D;61102;51.956;5.878;2023-04-25T02:53:46;10.14;60.25
72952;HTU21D;61102;51.956;5.878;2023-04-25T02:56:12;10.11;60.30
72952;HTU21D;61102;51.956;5.878;2023-04-25T02:58:38;10.07;60.31
72952;HTU21D;61102;51.956;5.878;2023-04-25T03:01:04;10.01;60.32
72952;HTU21D;61102;51.956;5.878;2023-04-25T03:03:30;9.98;60.30
72952;HTU21D;61102;51.956;5.878;2023-04-25T03:05:56;9.95;60.25
72952;HTU21D;61102;51.956;5.878;2023-04-25T03:08:28;9.92;60.21
72952;HTU21D;61102;51.956;5.878;2023-04-25T03:10:59;9.88;60.22
72952;HTU21D;61102;51.956;5.878;2023-04-25T03:13:25;9.81;60.29
72952;HTU21D;61102;51.956;5.878;2023-04-25T03:15:53;9.78;60.22
72952;HTU21D;61102;51.956;5.878;2023-04-25T03:18:19;9.74;60.22
72952;HTU21D;61102;51.956;5.878;2023-04-25T03:20:45;9.69;60.20
72952;HTU21D;61102;51.956;5.878;2023-04-25T03:23:12;9.65;60.24
72952;HTU21D;61102;51.956;5.878;2023-04-25T03:25:41;9.61;60.24
72952;HTU21D;61102;51.956;5.878;2023-04-25T03:28:08;9.59;60.22
72952;HTU21D;61102;51.956;5.878;2023-04-25T03:30:35;9.53;60.30
72952;HTU21D;61102;51.956;5.878;2023-04-25T03:33:01;9.52;60.24
72952;HTU21D;61102;51.956;5.878;2023-04-25T03:35:27;9.51;60.25
72952;HTU21D;61102;51.956;5.878;2023-04-25T03:37:54;9.49;60.17
72952;HTU21D;61102;51.956;5.878;2023-04-25T03:40:25;9.47;60.12
72952;HTU21D;61102;51.956;5.878;2023-04-25T03:43:17;9.50;59.99
72952;HTU21D;61102;51.956;5.878;2023-04-25T03:45:50;9.48;60.15
72952;HTU21D;61102;51.956;5.878;2023-04-25T03:48:19;9.51;60.26
72952;HTU21D;61102;51.956;5.878;2023-04-25T03:50:50;9.54;60.28
72952;HTU21D;61102;51.956;5.878;2023-04-25T03:53:17;9.57;60.25
72952;HTU21D;61102;51.956;5.878;2023-04-25T03:56:03;9.62;60.14
72952;HTU21D;61102;51.956;5.878;2023-04-25T03:58:32;9.62;60.09
72952;HTU21D;61102;51.956;5.878;2023-04-25T04:00:58;9.59;60.02
72952;HTU21D;61102;51.956;5.878;2023-04-25T04:03:24;9.54;59.98
72952;HTU21D;61102;51.956;5.878;2023-04-25T04:05:51;9.47;59.96
72952;HTU21D;61102;51.956;5.878;2023-04-25T04:08:17;9.42;59.86
72952;HTU21D;61102;51.956;5.878;2023-04-25T04:10:43;9.38;59.91
72952;HTU21D;61102;51.956;5.878;2023-04-25T04:13:09;9.32;59.95
72952;HTU21D;61102;51.956;5.878;2023-04-25T04:15:36;9.24;60.08
72952;HTU21D;61102;51.956;5.878;2023-04-25T04:18:02;9.19;60.16
72952;HTU21D;61102;51.956;5.878;2023-04-25T04:20:29;9.15;60.23
72952;HTU21D;61102;51.956;5.878;2023-04-25T04:22:56;9.10;60.22
72952;HTU21D;61102;51.956;5.878;2023-04-25T04:25:24;9.09;60.25
72952;HTU21D;61102;51.956;5.878;2023-04-25T04:28:04;9.07;60.25
72952;HTU21D;61102;51.956;5.878;2023-04-25T04:30:49;9.05;60.23
72952;HTU21D;61102;51.956;5.878;2023-04-25T04:33:17;9.04;60.29
72952;HTU21D;61102;51.956;5.878;2023-04-25T04:35:52;9.06;60.26
72952;HTU21D;61102;51.956;5.878;2023-04-25T04:38:19;9.06;60.27
72952;HTU21D;61102;51.956;5.878;2023-04-25T04:40:47;9.09;60.23
72952;HTU21D;61102;51.956;5.878;2023-04-25T04:43:22;9.11;60.12
72952;HTU21D;61102;51.956;5.878;2023-04-25T04:46:07;9.16;60.07
72952;HTU21D;61102;51.956;5.878;2023-04-25T04:48:42;9.18;60.03
72952;HTU21D;61102;51.956;5.878;2023-04-25T04:51:34;9.23;60.02
72952;HTU21D;61102;51.956;5.878;2023-04-25T04:54:20;9.25;59.99
72952;HTU21D;61102;51.956;5.878;2023-04-25T04:57:03;9.25;59.99
72952;HTU21D;61102;51.956;5.878;2023-04-25T05:00:08;9.25;60.11
72952;HTU21D;61102;51.956;5.878;2023-04-25T05:02:57;9.62;59.25
72952;HTU21D;61102;51.956;5.878;2023-04-25T05:05:32;9.39;59.78
72952;HTU21D;61102;51.956;5.878;2023-04-25T05:08:16;9.36;60.06
72952;HTU21D;61102;51.956;5.878;2023-04-25T05:11:09;9.44;60.07
72952;HTU21D;61102;51.956;5.878;2023-04-25T05:13:50;9.48;60.06
72952;HTU21D;61102;51.956;5.878;2023-04-25T05:16:35;9.51;60.09
72952;HTU21D;61102;51.956;5.878;2023-04-25T05:19:34;9.59;59.98
72952;HTU21D;61102;51.956;5.878;2023-04-25T05:22:22;9.68;60.09
72952;HTU21D;61102;51.956;5.878;2023-04-25T05:25:08;9.80;59.75
72952;HTU21D;61102;51.956;5.878;2023-04-25T05:27:57;9.81;59.65
72952;HTU21D;61102;51.956;5.878;2023-04-25T05:30:41;9.89;59.64
72952;HTU21D;61102;51.956;5.878;2023-04-25T05:33:19;9.95;59.53
72952;HTU21D;61102;51.956;5.878;2023-04-25T05:35:46;10.00;59.52
72952;HTU21D;61102;51.956;5.878;2023-04-25T05:38:12;10.07;59.41
72952;HTU21D;61102;51.956;5.878;2023-04-25T05:41:04;10.13;59.27
72952;HTU21D;61102;51.956;5.878;2023-04-25T05:43:46;10.21;59.19
72952;HTU21D;61102;51.956;5.878;2023-04-25T05:46:21;10.27;59.16
72952;HTU21D;61102;51.956;5.878;2023-04-25T05:49:01;10.34;58.99
72952;HTU21D;61102;51.956;5.878;2023-04-25T05:51:57;10.39;58.75
72952;HTU21D;61102;51.956;5.878;2023-04-25T05:54:32;10.41;58.80
72952;HTU21D;61102;51.956;5.878;2023-04-25T05:56:59;10.48;58.69
72952;HTU21D;61102;51.956;5.878;2023-04-25T05:59:25;10.67;58.43
72952;HTU21D;61102;51.956;5.878;2023-04-25T06:01:51;10.79;58.25
72952;HTU21D;61102;51.956;5.878;2023-04-25T06:04:18;10.99;57.97
72952;HTU21D;61102;51.956;5.878;2023-04-25T06:06:44;11.04;57.51
72952;HTU21D;61102;51.956;5.878;2023-04-25T06:09:10;11.02;57.14
72952;HTU21D;61102;51.956;5.878;2023-04-25T06:11:36;10.99;57.37
72952;HTU21D;61102;51.956;5.878;2023-04-25T06:14:02;11.00;57.26
72952;HTU21D;61102;51.956;5.878;2023-04-25T06:16:32;11.00;57.32
72952;HTU21D;61102;51.956;5.878;2023-04-25T06:18:58;10.98;57.16
72952;HTU21D;61102;51.956;5.878;2023-04-25T06:21:24;10.98;57.12
72952;HTU21D;61102;51.956;5.878;2023-04-25T06:23:51;10.95;57.13
72952;HTU21D;61102;51.956;5.878;2023-04-25T06:26:21;10.97;56.97
72952;HTU21D;61102;51.956;5.878;2023-04-25T06:28:48;10.93;56.88
72952;HTU21D;61102;51.956;5.878;2023-04-25T06:31:14;10.95;56.88
72952;HTU21D;61102;51.956;5.878;2023-04-25T06:33:42;10.95;56.85
72952;HTU21D;61102;51.956;5.878;2023-04-25T06:36:09;10.98;56.95
72952;HTU21D;61102;51.956;5.878;2023-04-25T06:38:37;11.09;57.00
72952;HTU21D;61102;51.956;5.878;2023-04-25T06:41:03;11.25;56.78
72952;HTU21D;61102;51.956;5.878;2023-04-25T06:43:34;11.34;56.26
72952;HTU21D;61102;51.956;5.878;2023-04-25T06:46:09;11.46;56.26
72952;HTU21D;61102;51.956;5.878;2023-04-25T06:48:42;11.55;56.10
72952;HTU21D;61102;51.956;5.878;2023-04-25T06:51:09;11.62;56.30
72952;HTU21D;61102;51.956;5.878;2023-04-25T06:53:37;11.75;55.87
72952;HTU21D;61102;51.956;5.878;2023-04-25T06:56:06;11.81;55.74
72952;HTU21D;61102;51.956;5.878;2023-04-25T06:58:49;11.88;55.20
72952;HTU21D;61102;51.956;5.878;2023-04-25T07:01:37;11.89;55.21
72952;HTU21D;61102;51.956;5.878;2023-04-25T07:04:07;11.96;55.18
72952;HTU21D;61102;51.956;5.878;2023-04-25T07:06:39;12.05;55.39
72952;HTU21D;61102;51.956;5.878;2023-04-25T07:09:09;12.15;55.39
72952;HTU21D;61102;51.956;5.878;2023-04-25T07:11:39;12.19;54.96
72952;HTU21D;61102;51.956;5.878;2023-04-25T07:14:05;12.23;55.07
72952;HTU21D;61102;51.956;5.878;2023-04-25T07:16:31;12.32;55.09
72952;HTU21D;61102;51.956;5.878;2023-04-25T07:18:58;12.48;55.05
72952;HTU21D;61102;51.956;5.878;2023-04-25T07:21:25;12.66;55.08
72952;HTU21D;61102;51.956;5.878;2023-04-25T07:23:52;12.85;55.00
72952;HTU21D;61102;51.956;5.878;2023-04-25T07:26:24;12.93;53.45
72952;HTU21D;61102;51.956;5.878;2023-04-25T07:29:08;13.03;53.59
72952;HTU21D;61102;51.956;5.878;2023-04-25T07:31:35;13.11;53.43
72952;HTU21D;61102;51.956;5.878;2023-04-25T07:34:01;13.24;52.97
72952;HTU21D;61102;51.956;5.878;2023-04-25T07:36:28;13.34;52.85
72952;HTU21D;61102;51.956;5.878;2023-04-25T07:38:54;13.49;52.47
72952;HTU21D;61102;51.956;5.878;2023-04-25T07:41:21;13.68;52.82
72952;HTU21D;61102;51.956;5.878;2023-04-25T07:43:47;13.80;50.40
72952;HTU21D;61102;51.956;5.878;2023-04-25T07:46:13;13.83;49.71
72952;HTU21D;61102;51.956;5.878;2023-04-25T07:48:39;13.90;48.92
72952;HTU21D;61102;51.956;5.878;2023-04-25T07:51:05;13.89;48.29
72952;HTU21D;61102;51.956;5.878;2023-04-25T07:53:34;13.93;48.18
72952;HTU21D;61102;51.956;5.878;2023-04-25T07:56:07;13.93;47.50
72952;HTU21D;61102;51.956;5.878;2023-04-25T07:58:35;13.91;47.98
72952;HTU21D;61102;51.956;5.878;2023-04-25T08:01:04;13.94;46.66
72952;HTU21D;61102;51.956;5.878;2023-04-25T08:03:52;13.93;45.73
72952;HTU21D;61102;51.956;5.878;2023-04-25T08:06:27;13.93;45.96
72952;HTU21D;61102;51.956;5.878;2023-04-25T08:09:06;14.03;46.17
72952;HTU21D;61102;51.956;5.878;2023-04-25T08:11:38;13.94;44.99
72952;HTU21D;61102;51.956;5.878;2023-04-25T08:14:06;13.82;45.32
72952;HTU21D;61102;51.956;5.878;2023-04-25T08:16:33;13.77;45.78
72952;HTU21D;61102;51.956;5.878;2023-04-25T08:18:59;13.89;45.50
72952;HTU21D;61102;51.956;5.878;2023-04-25T08:21:26;14.01;44.26
72952;HTU21D;61102;51.956;5.878;2023-04-25T08:23:54;14.13;43.27
72952;HTU21D;61102;51.956;5.878;2023-04-25T08:26:25;14.30;43.68
72952;HTU21D;61102;51.956;5.878;2023-04-25T08:28:52;14.49;43.06
72952;HTU21D;61102;51.956;5.878;2023-04-25T08:31:18;14.67;42.87
72952;HTU21D;61102;51.956;5.878;2023-04-25T08:33:54;14.95;40.82
72952;HTU21D;61102;51.956;5.878;2023-04-25T08:36:43;15.12;38.85
72952;HTU21D;61102;51.956;5.878;2023-04-25T08:39:41;15.29;39.07
72952;HTU21D;61102;51.956;5.878;2023-04-25T08:42:26;15.48;40.36
72952;HTU21D;61102;51.956;5.878;2023-04-25T08:44:59;15.70;40.21
72952;HTU21D;61102;51.956;5.878;2023-04-25T08:47:37;15.72;39.30
72952;HTU21D;61102;51.956;5.878;2023-04-25T08:50:05;15.71;39.15
72952;HTU21D;61102;51.956;5.878;2023-04-25T08:52:43;15.46;38.01
72952;HTU21D;61102;51.956;5.878;2023-04-25T08:55:12;15.06;38.88
72952;HTU21D;61102;51.956;5.878;2023-04-25T08:57:40;14.84;39.88
72952;HTU21D;61102;51.956;5.878;2023-04-25T09:00:10;14.63;38.69
72952;HTU21D;61102;51.956;5.878;2023-04-25T09:02:39;14.40;39.06
72952;HTU21D;61102;51.956;5.878;2023-04-25T09:05:07;14.24;39.68
72952;HTU21D;61102;51.956;5.878;2023-04-25T09:07:35;14.13;40.30
72952;HTU21D;61102;51.956;5.878;2023-04-25T09:10:02;13.94;40.85
72952;HTU21D;61102;51.956;5.878;2023-04-25T09:12:31;13.67;41.69
72952;HTU21D;61102;51.956;5.878;2023-04-25T09:15:05;13.80;41.23
72952;HTU21D;61102;51.956;5.878;2023-04-25T09:18:01;13.17;43.93
72952;HTU21D;61102;51.956;5.878;2023-04-25T09:20:42;13.04;44.71
72952;HTU21D;61102;51.956;5.878;2023-04-25T09:23:12;13.15;45.04
72952;HTU21D;61102;51.956;5.878;2023-04-25T09:25:38;13.34;45.12
72952;HTU21D;61102;51.956;5.878;2023-04-25T09:28:10;13.52;43.12
72952;HTU21D;61102;51.956;5.878;2023-04-25T09:30:36;13.64;43.21
72952;HTU21D;61102;51.956;5.878;2023-04-25T09:33:33;13.94;43.27
72952;HTU21D;61102;51.956;5.878;2023-04-25T09:36:09;14.03;42.59
72952;HTU21D;61102;51.956;5.878;2023-04-25T09:38:49;14.08;41.65
72952;HTU21D;61102;51.956;5.878;2023-04-25T09:41:23;14.08;41.60
72952;HTU21D;61102;51.956;5.878;2023-04-25T09:43:50;14.14;41.20
72952;HTU21D;61102;51.956;5.878;2023-04-25T09:46:17;14.15;39.80
72952;HTU21D;61102;51.956;5.878;2023-04-25T09:48:50;14.12;39.97
72952;HTU21D;61102;51.956;5.878;2023-04-25T09:51:19;14.22;39.91
72952;HTU21D;61102;51.956;5.878;2023-04-25T09:53:47;14.35;39.74
72952;HTU21D;61102;51.956;5.878;2023-04-25T09:56:27;14.52;38.88
72952;HTU21D;61102;51.956;5.878;2023-04-25T09:58:58;14.71;39.05
72952;HTU21D;61102;51.956;5.878;2023-04-25T10:01:25;14.88;38.49
72952;HTU21D;61102;51.956;5.878;2023-04-25T10:04:18;15.58;36.18
72952;HTU21D;61102;51.956;5.878;2023-04-25T10:06:52;15.40;38.33
72952;HTU21D;61102;51.956;5.878;2023-04-25T10:09:25;15.72;38.40
72952;HTU21D;61102;51.956;5.878;2023-04-25T10:11:55;15.87;37.03
72952;HTU21D;61102;51.956;5.878;2023-04-25T10:14:22;16.10;35.50
72952;HTU21D;61102;51.956;5.878;2023-04-25T10:16:49;16.24;36.18
72952;HTU21D;61102;51.956;5.878;2023-04-25T10:19:20;16.25;36.40
72952;HTU21D;61102;51.956;5.878;2023-04-25T10:21:51;16.04;33.44
72952;HTU21D;61102;51.956;5.878;2023-04-25T10:24:19;15.60;34.24
72952;HTU21D;61102;51.956;5.878;2023-04-25T10:26:46;15.31;34.89
72952;HTU21D;61102;51.956;5.878;2023-04-25T10:29:21;15.23;35.09
72952;HTU21D;61102;51.956;5.878;2023-04-25T10:31:48;15.28;35.79
72952;HTU21D;61102;51.956;5.878;2023-04-25T10:34:16;15.47;35.90
72952;HTU21D;61102;51.956;5.878;2023-04-25T10:36:42;15.58;33.99
72952;HTU21D;61102;51.956;5.878;2023-04-25T10:39:08;15.67;33.78
72952;HTU21D;61102;51.956;5.878;2023-04-25T10:42:01;15.68;32.96
72952;HTU21D;61102;51.956;5.878;2023-04-25T10:44:29;15.28;34.72
72952;HTU21D;61102;51.956;5.878;2023-04-25T10:46:56;15.09;36.05
72952;HTU21D;61102;51.956;5.878;2023-04-25T10:54:47;14.83;34.89
72952;HTU21D;61102;51.956;5.878;2023-04-25T10:57:47;14.83;34.65
72952;HTU21D;61102;51.956;5.878;2023-04-25T11:00:20;14.67;35.39
72952;HTU21D;61102;51.956;5.878;2023-04-25T11:02:52;14.48;35.11
72952;HTU21D;61102;51.956;5.878;2023-04-25T11:05:31;14.41;35.53
72952;HTU21D;61102;51.956;5.878;2023-04-25T11:07:58;14.45;35.88
72952;HTU21D;61102;51.956;5.878;2023-04-25T11:10:29;14.44;35.81
72952;HTU21D;61102;51.956;5.878;2023-04-25T11:12:56;14.54;35.37
72952;HTU21D;61102;51.956;5.878;2023-04-25T11:15:23;14.66;34.92
72952;HTU21D;61102;51.956;5.878;2023-04-25T11:17:51;14.78;34.15
72952;HTU21D;61102;51.956;5.878;2023-04-25T11:20:17;15.00;34.49
72952;HTU21D;61102;51.956;5.878;2023-04-25T11:22:45;15.21;34.84
72952;HTU21D;61102;51.956;5.878;2023-04-25T11:25:14;15.46;35.33
72952;HTU21D;61102;51.956;5.878;2023-04-25T11:27:55;15.83;33.80
72952;HTU21D;61102;51.956;5.878;2023-04-25T11:30:22;15.93;33.58
72952;HTU21D;61102;51.956;5.878;2023-04-25T11:32:49;16.10;32.84
72952;HTU21D;61102;51.956;5.878;2023-04-25T11:35:16;16.18;33.02
72952;HTU21D;61102;51.956;5.878;2023-04-25T11:37:43;16.30;32.38
72952;HTU21D;61102;51.956;5.878;2023-04-25T11:40:10;16.49;32.75
72952;HTU21D;61102;51.956;5.878;2023-04-25T11:42:38;16.74;31.54
72952;HTU21D;61102;51.956;5.878;2023-04-25T11:45:05;16.94;31.25
72952;HTU21D;61102;51.956;5.878;2023-04-25T11:47:33;17.26;31.93
72952;HTU21D;61102;51.956;5.878;2023-04-25T11:50:04;17.69;30.44
72952;HTU21D;61102;51.956;5.878;2023-04-25T11:52:40;17.74;29.35
72952;HTU21D;61102;51.956;5.878;2023-04-25T11:55:19;17.61;28.92
72952;HTU21D;61102;51.956;5.878;2023-04-25T11:57:48;17.41;28.74
72952;HTU21D;61102;51.956;5.878;2023-04-25T12:00:19;17.38;29.24
72952;HTU21D;61102;51.956;5.878;2023-04-25T12:02:53;17.23;29.42
72952;HTU21D;61102;51.956;5.878;2023-04-25T12:05:24;16.88;29.41
72952;HTU21D;61102;51.956;5.878;2023-04-25T12:07:51;16.61;30.23
72952;HTU21D;61102;51.956;5.878;2023-04-25T12:10:18;16.24;30.50
72952;HTU21D;61102;51.956;5.878;2023-04-25T12:12:46;15.98;32.20
72952;HTU21D;61102;51.956;5.878;2023-04-25T12:17:46;15.47;35.47
72952;HTU21D;61102;51.956;5.878;2023-04-25T12:20:15;15.16;36.43
72952;HTU21D;61102;51.956;5.878;2023-04-25T12:22:42;14.88;37.14
72952;HTU21D;61102;51.956;5.878;2023-04-25T12:25:12;14.74;37.75
72952;HTU21D;61102;51.956;5.878;2023-04-25T12:27:39;14.62;38.13
72952;HTU21D;61102;51.956;5.878;2023-04-25T12:30:08;14.45;38.69
72952;HTU21D;61102;51.956;5.878;2023-04-25T12:32:36;14.36;39.20
72952;HTU21D;61102;51.956;5.878;2023-04-25T12:35:05;14.27;39.46
72952;HTU21D;61102;51.956;5.878;2023-04-25T12:37:32;14.22;39.64
72952;HTU21D;61102;51.956;5.878;2023-04-25T12:39:58;14.26;39.59
72952;HTU21D;61102;51.956;5.878;2023-04-25T12:42:24;14.34;39.20
72952;HTU21D;61102;51.956;5.878;2023-04-25T12:44:50;14.50;39.11
72952;HTU21D;61102;51.956;5.878;2023-04-25T12:47:16;14.71;38.88
72952;HTU21D;61102;51.956;5.878;2023-04-25T12:49:42;14.92;38.56
72952;HTU21D;61102;51.956;5.878;2023-04-25T12:52:08;15.06;37.72
72952;HTU21D;61102;51.956;5.878;2023-04-25T12:54:34;15.24;37.66
72952;HTU21D;61102;51.956;5.878;2023-04-25T12:57:01;15.45;36.83
72952;HTU21D;61102;51.956;5.878;2023-04-25T12:59:28;16.10;35.73
72952;HTU21D;61102;51.956;5.878;2023-04-25T13:01:54;15.88;35.11
72952;HTU21D;61102;51.956;5.878;2023-04-25T13:04:20;15.99;33.63
72952;HTU21D;61102;51.956;5.878;2023-04-25T13:06:47;16.18;33.37
72952;HTU21D;61102;51.956;5.878;2023-04-25T13:09:13;16.37;33.67
72952;HTU21D;61102;51.956;5.878;2023-04-25T13:11:39;16.46;32.90
72952;HTU21D;61102;51.956;5.878;2023-04-25T13:14:06;16.61;32.58
72952;HTU21D;61102;51.956;5.878;2023-04-25T13:16:32;16.73;32.54
72952;HTU21D;61102;51.956;5.878;2023-04-25T13:18:58;17.30;32.83
72952;HTU21D;61102;51.956;5.878;2023-04-25T13:21:24;17.56;32.27
72952;HTU21D;61102;51.956;5.878;2023-04-25T13:23:51;17.35;31.84
72952;HTU21D;61102;51.956;5.878;2023-04-25T13:26:18;16.90;32.86
72952;HTU21D;61102;51.956;5.878;2023-04-25T13:28:44;16.95;32.68
72952;HTU21D;61102;51.956;5.878;2023-04-25T13:31:10;16.45;34.08
72952;HTU21D;61102;51.956;5.878;2023-04-25T13:33:36;16.50;34.18
72952;HTU21D;61102;51.956;5.878;2023-04-25T13:36:03;17.49;32.27
72952;HTU21D;61102;51.956;5.878;2023-04-25T13:38:29;18.87;30.22
72952;HTU21D;61102;51.956;5.878;2023-04-25T13:40:55;19.74;28.75
72952;HTU21D;61102;51.956;5.878;2023-04-25T13:43:21;19.31;29.78
72952;HTU21D;61102;51.956;5.878;2023-04-25T13:45:49;18.44;28.51
72952;HTU21D;61102;51.956;5.878;2023-04-25T13:48:15;17.54;29.57
72952;HTU21D;61102;51.956;5.878;2023-04-25T13:50:41;17.29;30.37
72952;HTU21D;61102;51.956;5.878;2023-04-25T13:53:07;18.09;28.14
72952;HTU21D;61102;51.956;5.878;2023-04-25T13:55:34;19.36;27.44
72952;HTU21D;61102;51.956;5.878;2023-04-25T13:58:03;19.68;26.68
72952;HTU21D;61102;51.956;5.878;2023-04-25T14:00:39;18.91;26.72
72952;HTU21D;61102;51.956;5.878;2023-04-25T14:03:08;18.06;27.67
72952;HTU21D;61102;51.956;5.878;2023-04-25T14:05:35;17.75;28.78
72952;HTU21D;61102;51.956;5.878;2023-04-25T14:08:08;18.10;27.07
72952;HTU21D;61102;51.956;5.878;2023-04-25T14:10:35;18.68;25.58
72952;HTU21D;61102;51.956;5.878;2023-04-25T14:13:02;19.12;23.94
72952;HTU21D;61102;51.956;5.878;2023-04-25T14:15:30;18.99;24.26
72952;HTU21D;61102;51.956;5.878;2023-04-25T14:17:56;18.35;27.02
72952;HTU21D;61102;51.956;5.878;2023-04-25T14:20:23;17.67;29.29
72952;HTU21D;61102;51.956;5.878;2023-04-25T14:22:49;17.21;30.96
72952;HTU21D;61102;51.956;5.878;2023-04-25T14:25:15;16.86;31.77
72952;HTU21D;61102;51.956;5.878;2023-04-25T14:27:42;16.54;31.77
72952;HTU21D;61102;51.956;5.878;2023-04-25T14:30:08;16.31;32.16
72952;HTU21D;61102;51.956;5.878;2023-04-25T14:32:35;16.16;31.80
72952;HTU21D;61102;51.956;5.878;2023-04-25T14:35:01;16.03;31.55
72952;HTU21D;61102;51.956;5.878;2023-04-25T14:37:27;15.91;32.02
72952;HTU21D;61102;51.956;5.878;2023-04-25T14:39:53;15.85;32.13
72952;HTU21D;61102;51.956;5.878;2023-04-25T14:42:19;15.59;31.79
72952;HTU21D;61102;51.956;5.878;2023-04-25T14:44:45;15.39;31.46
72952;HTU21D;61102;51.956;5.878;2023-04-25T14:47:12;15.25;30.30
72952;HTU21D;61102;51.956;5.878;2023-04-25T14:49:38;15.17;30.83
72952;HTU21D;61102;51.956;5.878;2023-04-25T14:52:04;15.17;31.30
72952;HTU21D;61102;51.956;5.878;2023-04-25T14:54:33;15.29;31.33
72952;HTU21D;61102;51.956;5.878;2023-04-25T14:56:59;15.46;31.77
72952;HTU21D;61102;51.956;5.878;2023-04-25T14:59:26;15.71;31.73
72952;HTU21D;61102;51.956;5.878;2023-04-25T15:01:52;15.96;31.86
72952;HTU21D;61102;51.956;5.878;2023-04-25T15:04:19;16.10;31.48
72952;HTU21D;61102;51.956;5.878;2023-04-25T15:06:45;16.25;30.98
72952;HTU21D;61102;51.956;5.878;2023-04-25T15:09:11;16.35;30.61
72952;HTU21D;61102;51.956;5.878;2023-04-25T15:11:37;16.45;30.93
72952;HTU21D;61102;51.956;5.878;2023-04-25T15:14:04;16.37;30.38
72952;HTU21D;61102;51.956;5.878;2023-04-25T15:16:30;16.17;30.77
72952;HTU21D;61102;51.956;5.878;2023-04-25T15:18:57;15.98;30.74
72952;HTU21D;61102;51.956;5.878;2023-04-25T15:21:24;15.74;31.26
72952;HTU21D;61102;51.956;5.878;2023-04-25T15:23:50;15.56;31.36
72952;HTU21D;61102;51.956;5.878;2023-04-25T15:26:16;15.41;31.18
72952;HTU21D;61102;51.956;5.878;2023-04-25T15:28:42;15.22;31.64
72952;HTU21D;61102;51.956;5.878;2023-04-25T15:31:09;14.96;32.95
72952;HTU21D;61102;51.956;5.878;2023-04-25T15:33:35;14.69;34.62
72952;HTU21D;61102;51.956;5.878;2023-04-25T15:36:01;14.48;35.78
72952;HTU21D;61102;51.956;5.878;2023-04-25T15:38:28;14.80;36.05
72952;HTU21D;61102;51.956;5.878;2023-04-25T15:40:54;14.42;37.21
72952;HTU21D;61102;51.956;5.878;2023-04-25T15:43:20;14.39;37.82